createdAt,value
2023-03-06T00:01:28.469Z,30.50
2023-03-06T00:03:59.474Z,38.75
2023-03-06T00:06:31.117Z,44.75
2023-03-06T00:09:01.471Z,33.25
2023-03-06T00:11:32.448Z,41.00
2023-03-06T00:14:03.358Z,39.50
2023-03-06T00:16:34.034Z,35.75
2023-03-06T00:19:04.655Z,34.50
2023-03-06T00:21:36.042Z,40.75
2023-03-06T00:24:08.173Z,46.25
2023-03-06T00:26:39.370Z,43.25
2023-03-06T00:29:10.364Z,46.00
2023-03-06T00:31:41.452Z,52.00
2023-03-06T00:34:12.003Z,35.50
2023-03-06T00:36:43.087Z,43.75
2023-03-06T00:39:14.081Z,43.50
2023-03-06T00:41:46.935Z,46.75
2023-03-06T00:44:16.862Z,46.75
2023-03-06T00:46:47.401Z,41.25
2023-03-06T00:49:18.092Z,31.00
2023-03-06T00:51:48.417Z,35.25
2023-03-06T00:54:20.502Z,38.00
2023-03-06T00:56:51.086Z,43.50
2023-03-06T00:59:21.928Z,51.75
2023-03-06T01:01:53.021Z,48.75
2023-03-06T01:04:24.253Z,59.00
2023-03-06T01:06:56.310Z,59.00
2023-03-06T01:09:27.038Z,60.50
2023-03-06T01:11:58.026Z,60.00
2023-03-06T01:14:28.660Z,47.50
2023-03-06T01:17:00.605Z,64.75
2023-03-06T01:19:31.171Z,56.75
2023-03-06T01:22:01.511Z,59.25
2023-03-06T01:24:31.935Z,63.25
2023-03-06T01:27:02.303Z,42.25
2023-03-06T01:29:32.844Z,41.25
2023-03-06T01:32:03.465Z,34.25
2023-03-06T01:34:34.109Z,44.25
2023-03-06T01:37:04.520Z,47.00
2023-03-06T01:39:36.644Z,52.25
2023-03-06T01:42:07.423Z,19.75
2023-03-06T01:44:39.607Z,22.75
2023-03-06T01:47:10.665Z,24.00
2023-03-06T01:49:42.713Z,39.50
2023-03-06T01:52:16.371Z,35.25
2023-03-06T01:54:52.976Z,21.25
2023-03-06T01:57:26.504Z,25.50
2023-03-06T02:00:05.928Z,16.50
2023-03-06T02:02:38.565Z,20.50
2023-03-06T02:05:09.435Z,17.00
2023-03-06T02:07:42.748Z,20.50
2023-03-06T02:10:14.786Z,21.25
2023-03-06T02:12:45.837Z,22.00
2023-03-06T02:15:19.101Z,28.25
2023-03-06T02:17:51.212Z,17.75
2023-03-06T02:20:33.698Z,21.25
2023-03-06T02:23:13.289Z,22.50
2023-03-06T02:25:48.410Z,18.00
2023-03-06T02:28:22.020Z,28.00
2023-03-06T02:30:54.702Z,24.75
2023-03-06T02:33:28.037Z,30.00
2023-03-06T02:36:04.162Z,21.50
2023-03-06T02:38:40.626Z,24.25
2023-03-06T02:41:11.436Z,35.50
2023-03-06T02:43:45.278Z,16.25
2023-03-06T02:46:16.300Z,17.00
2023-03-06T02:48:47.395Z,24.25
2023-03-06T02:51:17.977Z,30.00
2023-03-06T02:53:48.581Z,28.00
2023-03-06T02:56:19.824Z,31.25
2023-03-06T02:58:50.276Z,31.00
2023-03-06T03:01:20.828Z,22.25
2023-03-06T03:03:51.170Z,33.75
2023-03-06T03:06:21.471Z,28.25
2023-03-06T03:08:51.822Z,30.75
2023-03-06T03:11:23.027Z,28.75
2023-03-06T03:13:54.214Z,30.75
2023-03-06T03:16:24.867Z,26.25
2023-03-06T03:18:55.228Z,27.50
2023-03-06T03:21:28.635Z,38.50
2023-03-06T03:23:59.006Z,32.75
2023-03-06T03:26:30.536Z,34.50
2023-03-06T03:29:01.046Z,27.50
2023-03-06T03:31:33.245Z,39.00
2023-03-06T03:34:04.536Z,48.75
2023-03-06T03:36:36.233Z,45.50
2023-03-06T03:39:06.760Z,53.00
2023-03-06T03:41:38.719Z,33.50
2023-03-06T03:44:09.797Z,47.00
2023-03-06T03:46:40.222Z,67.25
2023-03-06T03:49:10.729Z,50.75
2023-03-06T03:51:41.146Z,61.75
2023-03-06T03:54:12.488Z,50.25
2023-03-06T03:56:43.038Z,58.75
2023-03-06T03:59:14.322Z,59.00
2023-03-06T04:01:44.770Z,59.00
2023-03-06T04:04:15.333Z,75.25
2023-03-06T04:06:45.790Z,65.50
2023-03-06T04:09:16.125Z,58.50
2023-03-06T04:11:49.154Z,70.75
2023-03-06T04:14:21.958Z,62.25
2023-03-06T04:16:52.944Z,66.25
2023-03-06T04:19:23.608Z,69.00
2023-03-06T04:21:54.089Z,36.00
2023-03-06T04:24:24.565Z,53.25
2023-03-06T04:26:56.483Z,44.25
2023-03-06T04:29:26.916Z,49.25
2023-03-06T04:31:57.805Z,64.75
2023-03-06T04:34:29.759Z,55.50
2023-03-06T04:37:00.901Z,42.75
2023-03-06T04:39:31.401Z,65.00
2023-03-06T04:42:02.367Z,63.50
2023-03-06T04:44:35.119Z,52.00
2023-03-06T04:47:07.465Z,45.75
2023-03-06T04:49:39.411Z,41.50
2023-03-06T04:52:10.089Z,45.50
2023-03-06T04:54:40.970Z,46.50
2023-03-06T04:57:11.747Z,48.50
2023-03-06T04:59:44.669Z,51.75
2023-03-06T05:02:15.129Z,43.75
2023-03-06T05:04:46.350Z,51.25
2023-03-06T05:07:20.530Z,62.50
2023-03-06T05:10:02.843Z,60.25
2023-03-06T05:12:36.991Z,66.50
2023-03-06T05:15:08.479Z,76.00
2023-03-06T05:17:39.612Z,52.50
2023-03-06T05:20:13.712Z,72.25
2023-03-06T05:22:45.017Z,67.75
2023-03-06T05:25:16.286Z,71.75
2023-03-06T05:27:48.506Z,78.50
2023-03-06T05:30:23.103Z,88.50
2023-03-06T05:32:57.334Z,93.25
2023-03-06T05:35:28.267Z,75.25
2023-03-06T05:37:59.453Z,74.75
2023-03-06T05:40:30.699Z,62.50
2023-03-06T05:43:03.666Z,60.75
2023-03-06T05:45:35.888Z,54.00
2023-03-06T05:48:07.431Z,51.75
2023-03-06T05:50:38.800Z,50.25
2023-03-06T05:53:12.198Z,51.75
2023-03-06T05:55:42.885Z,39.25
2023-03-06T05:58:13.318Z,37.00
2023-03-06T06:00:43.732Z,45.00
2023-03-06T06:03:18.945Z,46.00
2023-03-06T06:06:12.526Z,50.50
2023-03-06T06:08:43.986Z,52.00
2023-03-06T06:11:15.152Z,50.75
2023-03-06T06:13:49.920Z,51.75
2023-03-06T06:16:20.877Z,48.75
2023-03-06T06:18:52.066Z,50.50
2023-03-06T06:21:23.310Z,55.00
2023-03-06T06:23:53.904Z,60.75
2023-03-06T06:26:25.009Z,46.25
2023-03-06T06:28:59.073Z,60.50
2023-03-06T06:31:29.481Z,51.25
2023-03-06T06:33:59.814Z,58.75
2023-03-06T06:36:31.020Z,56.00
2023-03-06T06:39:02.852Z,65.75
2023-03-06T06:41:53.092Z,69.25
2023-03-06T06:44:08.917Z,65.25
2023-03-06T06:49:24.105Z,61.75
2023-03-06T06:51:55.027Z,68.00
2023-03-06T06:54:28.137Z,56.25
2023-03-06T06:57:21.117Z,73.00
2023-03-06T06:59:54.176Z,13.50
2023-03-06T07:02:26.091Z,73.75
2023-03-06T07:05:04.136Z,66.00
2023-03-06T07:07:37.075Z,47.75
2023-03-06T07:10:10.969Z,69.25
2023-03-06T07:12:43.509Z,37.25
2023-03-06T07:15:16.857Z,68.00
2023-03-06T07:17:49.928Z,60.25
2023-03-06T07:20:21.168Z,46.75
2023-03-06T07:22:52.173Z,48.00
2023-03-06T07:25:25.600Z,51.00
2023-03-06T07:27:56.526Z,48.00
2023-03-06T07:30:27.432Z,46.00
2023-03-06T07:32:59.120Z,51.00
2023-03-06T07:35:32.723Z,41.25
2023-03-06T07:38:03.934Z,33.00
2023-03-06T07:40:34.975Z,21.25
2023-03-06T07:43:18.805Z,28.75
2023-03-06T07:45:39.174Z,29.50
2023-03-06T07:48:12.572Z,29.00
2023-03-06T07:50:43.315Z,27.25
2023-03-06T07:53:15.359Z,34.00
2023-03-06T07:55:46.126Z,30.67
2023-03-06T07:58:17.042Z,25.25
2023-03-06T08:00:47.899Z,29.00
2023-03-06T08:03:19.990Z,35.25
2023-03-06T08:05:50.398Z,13.25
2023-03-06T08:08:21.511Z,23.50
2023-03-06T08:10:52.698Z,23.75
2023-03-06T08:13:24.762Z,23.75
2023-03-06T08:15:55.179Z,20.75
2023-03-06T08:18:26.876Z,17.25
2023-03-06T08:21:02.827Z,16.50
2023-03-06T08:23:34.740Z,25.00
2023-03-06T08:26:08.588Z,17.75
2023-03-06T08:28:39.188Z,9.00
2023-03-06T08:31:12.109Z,21.25
2023-03-06T08:33:43.289Z,19.50
2023-03-06T08:36:13.756Z,20.75
2023-03-06T08:38:45.037Z,13.75
2023-03-06T08:41:15.906Z,19.00
2023-03-06T08:43:46.539Z,29.75
2023-03-06T08:46:17.811Z,26.25
2023-03-06T08:48:56.865Z,16.50
2023-03-06T08:51:28.395Z,16.75
2023-03-06T08:53:59.589Z,25.75
2023-03-06T08:56:32.692Z,17.00
2023-03-06T08:59:23.759Z,20.75
2023-03-06T09:01:54.642Z,23.75
2023-03-06T09:04:25.821Z,39.25
2023-03-06T09:06:57.132Z,38.00
2023-03-06T09:09:27.553Z,54.50
2023-03-06T09:11:58.550Z,62.25
2023-03-06T09:14:28.925Z,76.50
2023-03-06T09:17:00.018Z,95.00
2023-03-06T09:19:30.341Z,47.40
2023-03-06T09:22:00.909Z,19.75
2023-03-06T09:24:31.728Z,16.25
2023-03-06T09:27:02.283Z,13.75
2023-03-06T09:29:32.820Z,7.50
2023-03-06T09:32:03.391Z,11.50
2023-03-06T09:34:34.807Z,16.75
2023-03-06T09:37:05.684Z,15.00
2023-03-06T09:39:43.489Z,14.25
2023-03-06T09:42:13.981Z,13.50
2023-03-06T09:44:47.902Z,12.50
2023-03-06T09:47:46.940Z,18.50
2023-03-06T09:50:26.220Z,12.00
2023-03-06T09:53:21.104Z,22.50
2023-03-06T09:55:54.513Z,19.25
2023-03-06T09:58:31.056Z,16.50
2023-03-06T10:01:13.267Z,12.50
2023-03-06T10:03:57.966Z,10.25
2023-03-06T10:06:37.133Z,8.25
2023-03-06T10:09:47.049Z,12.00
2023-03-06T10:12:27.480Z,9.25
2023-03-06T10:15:09.726Z,9.75
2023-03-06T10:17:42.537Z,9.75
2023-03-06T10:20:28.074Z,9.25
2023-03-06T10:23:22.226Z,9.25
2023-03-06T10:26:01.333Z,7.50
2023-03-06T10:31:28.317Z,10.75
2023-03-06T10:34:21.747Z,9.00
2023-03-06T10:36:52.414Z,9.00
2023-03-06T10:39:23.773Z,7.00
2023-03-06T10:41:55.815Z,11.50
2023-03-06T10:44:26.296Z,10.50
2023-03-06T10:46:57.426Z,16.75
2023-03-06T10:49:33.828Z,15.75
2023-03-06T10:52:15.819Z,7.50
2023-03-06T10:54:48.153Z,12.00
2023-03-06T10:57:32.294Z,9.00
2023-03-06T11:00:06.178Z,8.25
2023-03-06T11:02:38.831Z,9.00
2023-03-06T11:05:22.337Z,13.00
2023-03-06T11:08:00.626Z,8.75
2023-03-06T11:10:32.888Z,13.50
2023-03-06T11:13:06.986Z,10.00
2023-03-06T11:15:38.326Z,15.50
2023-03-06T11:18:12.523Z,10.75
2023-03-06T11:20:52.541Z,14.50
2023-03-06T11:23:39.651Z,11.50
2023-03-06T11:26:27.805Z,10.75
2023-03-06T11:29:18.282Z,8.50
2023-03-06T11:32:18.386Z,9.25
2023-03-06T11:35:00.304Z,10.75
2023-03-06T11:37:35.195Z,9.75
2023-03-06T11:40:08.636Z,9.50
2023-03-06T11:42:46.425Z,7.25
2023-03-06T11:45:32.409Z,8.25
2023-03-06T11:48:17.613Z,8.00
2023-03-06T11:50:53.529Z,9.00
2023-03-06T11:53:29.869Z,8.75
2023-03-06T11:56:35.176Z,4.00
2023-03-06T11:59:32.194Z,11.50
2023-03-06T12:02:17.202Z,10.75
2023-03-06T12:04:50.581Z,13.25
2023-03-06T12:07:32.147Z,12.00
2023-03-06T12:10:28.164Z,13.50
2023-03-06T12:13:28.112Z,12.50
2023-03-06T12:16:26.895Z,10.00
2023-03-06T12:19:19.754Z,13.00
2023-03-06T12:22:01.725Z,6.00
2023-03-06T12:27:54.642Z,11.75
2023-03-06T12:30:56.918Z,9.50
2023-03-06T12:33:52.314Z,10.25
2023-03-06T12:36:40.676Z,6.50
2023-03-06T12:39:31.164Z,10.75
2023-03-06T12:42:17.825Z,8.25
2023-03-06T12:45:13.231Z,8.25
2023-03-06T12:47:47.451Z,10.00
2023-03-06T12:50:21.443Z,10.25
2023-03-06T12:52:54.769Z,8.50
2023-03-06T12:55:26.730Z,6.00
2023-03-06T12:57:59.213Z,9.00
2023-03-06T13:00:41.516Z,10.75
2023-03-06T13:03:32.583Z,9.50
2023-03-06T13:06:32.411Z,16.00
2023-03-06T13:09:08.056Z,10.50
2023-03-06T13:11:53.584Z,13.00
2023-03-06T13:14:37.542Z,12.25
2023-03-06T13:17:27.372Z,9.00
2023-03-06T13:20:18.668Z,13.00
2023-03-06T13:22:49.312Z,11.50
2023-03-06T13:25:22.671Z,9.00
2023-03-06T13:27:56.232Z,9.25
2023-03-06T13:30:38.675Z,14.00
2023-03-06T13:33:31.423Z,8.50
2023-03-06T13:39:02.733Z,18.25
2023-03-06T13:41:36.889Z,14.00
2023-03-06T13:44:25.152Z,10.00
2023-03-06T13:47:06.646Z,9.00
2023-03-06T13:49:40.573Z,11.25
2023-03-06T13:52:22.642Z,14.25
2023-03-06T13:54:56.191Z,11.50
2023-03-06T13:57:53.891Z,10.00
2023-03-06T14:00:30.654Z,10.00
2023-03-06T14:03:25.363Z,20.50
2023-03-06T14:05:56.646Z,16.50
2023-03-06T14:08:29.933Z,16.75
2023-03-06T14:11:03.373Z,13.75
2023-03-06T14:13:47.109Z,13.00
2023-03-06T14:16:40.593Z,12.75
2023-03-06T14:19:04.632Z,19.00
2023-03-06T14:21:50.316Z,17.50
2023-03-06T14:24:23.987Z,14.75
2023-03-06T14:26:57.327Z,16.50
2023-03-06T14:29:30.367Z,14.50
2023-03-06T14:32:02.323Z,19.00
2023-03-06T14:34:36.274Z,15.50
2023-03-06T14:37:09.449Z,18.75
2023-03-06T14:39:44.223Z,12.00
2023-03-06T14:42:30.756Z,16.25
2023-03-06T14:45:04.849Z,18.25
2023-03-06T14:47:37.276Z,17.00
2023-03-06T14:50:25.856Z,13.50
2023-03-06T14:53:07.151Z,18.00
2023-03-06T14:55:38.005Z,19.25
2023-03-06T14:58:17.068Z,15.25
2023-03-06T15:00:50.499Z,24.25
2023-03-06T15:03:23.758Z,19.75
2023-03-06T15:05:56.470Z,17.50
2023-03-06T15:08:30.703Z,25.25
2023-03-06T15:11:07.079Z,17.00
2023-03-06T15:13:38.420Z,21.00
2023-03-06T15:16:20.629Z,20.00
2023-03-06T15:19:00.619Z,19.50
2023-03-06T15:21:38.134Z,16.50
2023-03-06T15:24:34.174Z,12.75
2023-03-06T15:27:07.673Z,16.00
2023-03-06T15:29:39.667Z,17.00
2023-03-06T15:32:29.751Z,17.75
2023-03-06T15:35:26.451Z,20.00
2023-03-06T15:37:58.023Z,15.25
2023-03-06T15:40:49.139Z,11.00
2023-03-06T15:43:19.568Z,14.75
2023-03-06T15:45:50.308Z,20.50
2023-03-06T15:48:21.268Z,15.00
2023-03-06T15:50:51.695Z,16.75
2023-03-06T15:53:22.066Z,22.00
2023-03-06T15:55:53.250Z,23.50
2023-03-06T15:58:28.335Z,26.50
2023-03-06T16:00:59.788Z,28.25
2023-03-06T16:03:30.851Z,22.25
2023-03-06T16:06:01.500Z,20.25
2023-03-06T16:08:32.051Z,19.25
2023-03-06T16:11:03.503Z,22.75
2023-03-06T16:13:34.636Z,23.75
2023-03-06T16:16:06.815Z,23.25
2023-03-06T16:18:38.364Z,23.00
2023-03-06T16:21:15.686Z,25.50
2023-03-06T16:23:46.907Z,28.00
2023-03-06T16:26:23.766Z,34.50
2023-03-06T16:28:55.493Z,36.75
2023-03-06T16:31:26.210Z,35.50
2023-03-06T16:33:57.588Z,38.00
2023-03-06T16:36:28.506Z,35.25
2023-03-06T16:38:59.042Z,35.25
2023-03-06T16:41:29.498Z,38.75
2023-03-06T16:44:00.256Z,38.00
2023-03-06T16:46:31.799Z,46.00
2023-03-06T16:49:02.352Z,42.00
2023-03-06T16:51:33.449Z,34.75
2023-03-06T16:54:04.575Z,34.50
2023-03-06T16:56:35.441Z,40.75
2023-03-06T16:59:05.955Z,32.00
2023-03-06T17:01:37.965Z,30.75
2023-03-06T17:04:08.774Z,32.75
2023-03-06T17:06:41.744Z,28.00
2023-03-06T17:09:12.383Z,45.50
2023-03-06T17:11:42.900Z,35.00
2023-03-06T17:14:13.480Z,36.25
2023-03-06T17:16:45.424Z,36.00
2023-03-06T17:19:16.172Z,36.25
2023-03-06T17:21:47.375Z,37.75
2023-03-06T17:24:20.954Z,36.25
2023-03-06T17:26:52.802Z,35.75
2023-03-06T17:29:23.127Z,40.75
2023-03-06T17:32:08.228Z,36.25
2023-03-06T17:34:39.550Z,24.25
2023-03-06T17:37:10.456Z,32.25
2023-03-06T17:39:42.704Z,28.75
2023-03-06T17:42:13.239Z,27.75
2023-03-06T17:44:44.459Z,32.75
2023-03-06T17:47:15.190Z,38.75
2023-03-06T17:49:47.135Z,28.75
2023-03-06T17:52:18.852Z,34.75
2023-03-06T17:54:49.756Z,29.75
2023-03-06T17:57:20.756Z,27.25
2023-03-06T17:59:53.473Z,30.50
2023-03-06T18:02:24.535Z,30.00
2023-03-06T18:04:57.218Z,24.00
2023-03-06T18:07:30.082Z,24.75
2023-03-06T18:10:02.115Z,18.75
2023-03-06T18:12:32.958Z,17.25
2023-03-06T18:15:04.376Z,21.25
2023-03-06T18:17:36.910Z,15.00
2023-03-06T18:20:14.626Z,21.50
2023-03-06T18:22:49.076Z,17.75
2023-03-06T18:25:30.897Z,21.00
2023-03-06T18:28:03.308Z,20.25
2023-03-06T18:30:39.729Z,19.75
2023-03-06T18:33:13.477Z,19.25
2023-03-06T18:35:47.423Z,26.00
2023-03-06T18:41:36.286Z,22.00
2023-03-06T18:44:22.001Z,23.75
2023-03-06T18:46:54.352Z,26.00
2023-03-06T18:49:32.627Z,25.50
2023-03-06T18:52:04.203Z,25.00
2023-03-06T18:54:34.820Z,27.00
2023-03-06T18:57:07.070Z,25.00
2023-03-06T18:59:39.385Z,21.75
2023-03-06T19:02:12.577Z,22.50
2023-03-06T19:04:43.462Z,23.75
2023-03-06T19:07:14.267Z,24.25
2023-03-06T19:09:48.971Z,20.25
2023-03-06T19:12:20.253Z,18.00
2023-03-06T19:14:55.404Z,24.25
2023-03-06T19:17:27.638Z,25.75
2023-03-06T19:20:00.564Z,30.75
2023-03-06T19:22:36.344Z,31.25
2023-03-06T19:25:08.562Z,27.75
2023-03-06T19:27:40.687Z,26.50
2023-03-06T19:30:13.597Z,32.00
2023-03-06T19:32:47.814Z,24.00
2023-03-06T19:35:19.067Z,46.25
2023-03-06T19:37:50.429Z,55.00
2023-03-06T19:40:21.671Z,125.25
2023-03-06T19:42:52.879Z,49.00
2023-03-06T19:45:24.716Z,58.75
2023-03-06T19:47:56.446Z,66.25
2023-03-06T19:50:28.524Z,45.50
2023-03-06T19:53:25.925Z,58.75
2023-03-06T19:56:18.311Z,61.50
2023-03-06T19:58:50.160Z,69.25
2023-03-06T20:01:23.134Z,69.00
2023-03-06T20:03:55.959Z,67.00
2023-03-06T20:06:29.485Z,71.50
2023-03-06T20:09:02.971Z,68.75
2023-03-06T20:11:39.813Z,60.25
2023-03-06T20:14:12.946Z,34.00
2023-03-06T20:16:44.084Z,43.50
2023-03-06T20:19:15.479Z,44.75
2023-03-06T20:21:46.566Z,21.00
2023-03-06T20:24:18.652Z,29.25
2023-03-06T20:26:50.241Z,26.25
2023-03-06T20:29:20.968Z,37.00
2023-03-06T20:31:55.750Z,43.50
2023-03-06T20:34:28.272Z,51.00
2023-03-06T20:36:58.713Z,42.50
2023-03-06T20:39:33.688Z,33.00
2023-03-06T20:42:04.930Z,26.25
2023-03-06T20:44:35.463Z,19.75
2023-03-06T20:47:07.298Z,24.75
2023-03-06T20:49:40.232Z,21.00
2023-03-06T20:52:11.439Z,26.50
2023-03-06T20:54:42.592Z,21.00
2023-03-06T20:57:13.147Z,24.25
2023-03-06T20:59:43.817Z,26.50
2023-03-06T21:02:14.451Z,20.75
2023-03-06T21:04:46.292Z,10.00
2023-03-06T21:07:18.037Z,22.50
2023-03-06T21:09:49.044Z,23.00
2023-03-06T21:12:20.359Z,16.00
2023-03-06T21:14:50.835Z,22.75
2023-03-06T21:17:21.464Z,27.75
2023-03-06T21:19:52.384Z,22.50
2023-03-06T21:22:22.974Z,23.50
2023-03-06T21:24:53.521Z,21.00
2023-03-06T21:27:24.512Z,27.75
2023-03-06T21:29:55.535Z,20.25
2023-03-06T21:32:26.806Z,28.50
2023-03-06T21:34:57.844Z,24.75
2023-03-06T21:37:29.195Z,29.50
2023-03-06T21:40:00.357Z,37.75
2023-03-06T21:42:30.773Z,45.50
2023-03-06T21:45:02.366Z,33.00
2023-03-06T21:47:33.087Z,43.00
2023-03-06T21:50:03.899Z,47.25
2023-03-06T21:52:35.355Z,46.75
2023-03-06T21:55:09.261Z,38.75
2023-03-06T21:57:40.428Z,37.25
2023-03-06T22:00:15.086Z,37.25
2023-03-06T22:02:46.334Z,36.00
2023-03-06T22:05:17.233Z,37.00
2023-03-06T22:07:48.525Z,45.75
2023-03-06T22:10:19.452Z,53.50
2023-03-06T22:12:50.504Z,66.50
2023-03-06T22:15:21.702Z,68.50
2023-03-06T22:17:52.656Z,78.25
2023-03-06T22:20:25.240Z,70.75
2023-03-06T22:22:55.980Z,69.50
2023-03-06T22:25:26.679Z,68.75
2023-03-06T22:27:57.034Z,55.50
2023-03-06T22:30:27.469Z,63.25
2023-03-06T22:32:57.917Z,70.75
2023-03-06T22:35:28.498Z,81.00
2023-03-06T22:37:59.588Z,70.50
2023-03-06T22:40:31.185Z,77.50
2023-03-06T22:43:01.643Z,78.75
2023-03-06T22:45:34.945Z,78.00
2023-03-06T22:48:11.114Z,75.75
2023-03-06T22:50:37.820Z,75.75
2023-03-06T22:53:08.167Z,76.50
2023-03-06T22:55:39.734Z,78.25
2023-03-06T22:58:10.346Z,77.25
2023-03-06T23:00:41.440Z,82.00
2023-03-06T23:03:11.790Z,92.50
2023-03-06T23:05:43.249Z,97.25
2023-03-06T23:08:14.203Z,81.25
2023-03-06T23:10:58.360Z,71.25
2023-03-06T23:13:43.724Z,81.75
2023-03-06T23:16:14.687Z,85.50
2023-03-06T23:18:45.636Z,103.25
2023-03-06T23:21:19.084Z,90.25
2023-03-06T23:23:52.942Z,84.25
2023-03-06T23:26:26.206Z,56.25
2023-03-06T23:28:57.585Z,59.50
2023-03-06T23:31:30.348Z,40.75
2023-03-06T23:34:02.866Z,29.25
2023-03-06T23:36:33.250Z,22.25
2023-03-06T23:39:03.711Z,26.00
2023-03-06T23:41:34.579Z,18.50
2023-03-06T23:44:05.186Z,24.00
2023-03-06T23:46:35.667Z,29.25
2023-03-06T23:49:05.898Z,20.25
2023-03-06T23:51:36.419Z,21.50
2023-03-06T23:54:06.741Z,24.75
2023-03-06T23:56:38.403Z,25.50
2023-03-06T23:59:11.145Z,22.00
